Terminal Aerodrome Forecast
Issued by NWS Sioux Falls, SD

Home | Current Version | Previous Version | Graphics & Text | Print | Product List | Glossary Off
Versions: 1 2 3 4 5 6 7 8 9 10 11 12

000
FTUS43 KFSD 012331
TAFHON
TAF
KHON 012331Z 0200/0224 31010KT P6SM SCT050
     FM020300 VRB04KT P6SM SKC
     FM021000 15007KT P6SM SCT200
     FM021500 15013G18KT P6SM SCT100 BKN200
     FM021800 16017G26KT P6SM SCT035 OVC100=

USA.gov is the U.S. government's official web portal to all federal, state and local government web resources and services.